Terminal Aerodrome Forecast
Issued by NWS

Home | Current Version | Previous Version | Text Only | Print | Product List | Glossary On
Versions: 1 2 3 4 5 6 7 8 9 10 11 12 13 14 15 16 17 18 19 20 21 22 23 24 25
000
FTUS41 KOKX 200200 AAA
TAFTEB
TAF AMD
KTEB 200242Z 2003/2024 12007KT P6SM BKN040 BKN070
     FM200400 15004KT P6SM BKN035 BKN070
     FM200800 16004KT P6SM OVC025
     FM201500 18009KT P6SM BKN035
     FM201800 17011KT P6SM SCT040=

USA.gov is the U.S. government's official web portal to all federal, state and local government web resources and services.